.
WxDataArchive / Data Records for 2015-11-10
2015-11-09 November 2015 2015-11-11

Data Records for Tuesday, 10 November 2015

Time	Temp	Chill	HIndex	Humid	Dewpt	 Wind 	HiWind	WindDir	Rain 	Barom
-----	----	-----	------	-----	-----	------	------	-------	-----	-----
00:00	44.3	44.3	44.3	89	41.3	0	2	112	0.00	30.111 
00:05	44.2	44.2	44.2	89	41.2	0	2	112	0.01	30.111 
00:10	44.2	44.2	44.2	89	41.2	0	1	112	0.00	30.111 
00:15	44.2	44.2	44.2	90	41.5	0	2	112	0.00	30.114 
00:20	44.1	44.1	44.1	90	41.4	0	1	112	0.00	30.114 
00:25	44.1	44.1	44.1	90	41.4	0	2	112	0.01	30.114 
00:30	43.9	43.9	43.9	91	41.4	0	2	112	0.01	30.108 
00:35	43.9	43.9	43.9	91	41.4	0	1	112	0.01	30.108 
00:40	43.8	43.8	43.8	91	41.3	0	0	---	0.01	30.108 
00:45	43.8	43.8	43.8	91	41.3	0	0	---	0.00	30.107 
00:50	43.8	43.8	43.8	92	41.6	0	1	112	0.01	30.107 
00:55	43.6	43.6	43.6	92	41.4	0	0	---	0.00	30.107 
01:00	43.6	43.6	43.6	92	41.4	0	2	112	0.00	30.104 
01:05	43.5	43.5	43.5	92	41.3	0	1	112	0.00	30.104 
01:10	43.5	43.5	43.5	92	41.3	0	0	---	0.01	30.104 
01:15	43.3	43.3	43.3	92	41.1	0	0	---	0.00	30.104 
01:20	43.3	43.3	43.3	92	41.1	0	0	---	0.01	30.104 
01:25	43.3	43.3	43.3	92	41.1	0	0	---	0.01	30.104 
01:30	43.3	43.3	43.3	92	41.1	0	0	---	0.02	30.105 
01:35	43.3	43.3	43.3	92	41.1	0	0	---	0.02	30.105 
01:40	43.3	43.3	43.3	92	41.1	0	0	---	0.03	30.105 
01:45	43.3	43.3	43.3	92	41.1	0	0	---	0.02	30.107 
01:50	43.3	43.3	43.3	93	41.4	0	0	---	0.02	30.107 
01:55	43.3	43.3	43.3	93	41.4	0	1	112	0.00	30.107 
02:00	43.2	43.2	43.2	93	41.3	0	0	---	0.01	30.105 
02:05	43.2	43.2	43.2	93	41.3	0	0	---	0.00	30.105 
02:10	43.2	43.2	43.2	93	41.3	0	0	---	0.00	30.105 
02:15	43.2	43.2	43.2	93	41.3	0	0	---	0.00	30.100 
02:20	43.1	43.1	43.1	93	41.2	0	0	---	0.01	30.100 
02:25	43.2	43.2	43.2	93	41.3	0	0	---	0.01	30.100 
02:30	43.2	43.2	43.2	93	41.3	0	0	---	0.00	30.096 
02:35	43.2	43.2	43.2	93	41.3	0	0	---	0.00	30.096 
02:40	43.2	43.2	43.2	93	41.3	0	0	---	0.00	30.096 
02:45	43.2	43.2	43.2	93	41.3	0	0	---	0.00	30.096 
02:50	43.2	43.2	43.2	93	41.3	0	0	---	0.01	30.096 
02:55	43.2	43.2	43.2	93	41.3	0	1	112	0.00	30.096 
03:00	43.2	43.2	43.2	93	41.3	0	0	---	0.00	30.091 
03:05	43.2	43.2	43.2	93	41.3	0	0	---	0.00	30.091 
03:10	43.2	43.2	43.2	93	41.3	0	0	---	0.00	30.091 
03:15	43.2	43.2	43.2	93	41.3	0	0	---	0.00	30.091 
03:20	43.2	43.2	43.2	93	41.3	0	0	---	0.00	30.091 
03:25	43.2	43.2	43.2	94	41.6	0	0	---	0.01	30.091 
03:30	43.1	43.1	43.1	94	41.5	0	0	---	0.00	30.084 
03:35	43.1	43.1	43.1	94	41.5	0	1	112	0.00	30.084 
03:40	43.1	43.1	43.1	94	41.5	0	0	---	0.00	30.084 
03:45	42.9	42.9	42.9	94	41.3	0	1	112	0.01	30.078 
03:50	42.9	42.9	42.9	94	41.3	0	0	---	0.00	30.078 
03:55	42.9	42.9	42.9	94	41.3	0	1	112	0.00	30.078 
04:00	42.9	42.9	42.9	94	41.3	0	1	112	0.01	30.074 
04:05	42.9	42.9	42.9	94	41.3	0	0	---	0.00	30.074 
04:10	42.9	42.9	42.9	94	41.3	0	1	112	0.00	30.074 
04:15	43.1	43.1	43.1	94	41.5	0	0	---	0.00	30.074 
04:20	43.1	43.1	43.1	94	41.5	0	0	---	0.00	30.074 
04:25	43.1	43.1	43.1	94	41.5	0	1	112	0.00	30.074 
04:30	43.1	43.1	43.1	94	41.5	0	1	112	0.00	30.071 
04:35	43.1	43.1	43.1	94	41.5	0	2	112	0.01	30.071 
04:40	43.1	43.1	43.1	94	41.5	0	1	112	0.00	30.071 
04:45	43.1	43.1	43.1	94	41.5	0	1	112	0.01	30.070 
04:50	43.1	43.1	43.1	94	41.5	0	1	112	0.01	30.070 
04:55	43.1	43.1	43.1	94	41.5	0	2	112	0.00	30.070 
05:00	43.1	43.1	43.1	94	41.5	0	1	112	0.01	30.072 
05:05	43.1	43.1	43.1	94	41.5	0	0	---	0.00	30.072 
05:10	43.1	43.1	43.1	94	41.5	0	1	112	0.01	30.072 
05:15	43.1	43.1	43.1	94	41.5	0	2	112	0.00	30.075 
05:20	42.9	42.9	42.9	94	41.3	0	1	112	0.00	30.075 
05:25	42.8	42.8	42.8	94	41.2	0	0	---	0.00	30.075 
05:30	42.8	42.8	42.8	94	41.2	0	1	112	0.00	30.074 
05:35	42.6	42.6	42.6	94	41.0	0	0	---	0.01	30.074 
05:40	42.6	42.6	42.6	94	41.0	0	0	---	0.00	30.074 
05:45	42.6	42.6	42.6	94	41.0	0	0	---	0.00	30.075 
05:50	42.6	42.6	42.6	94	41.0	0	1	112	0.00	30.075 
05:55	42.6	42.6	42.6	94	41.0	0	1	112	0.00	30.075 
06:00	42.8	42.8	42.8	94	41.2	0	1	112	0.00	30.075 
06:05	42.8	42.8	42.8	94	41.2	0	2	112	0.01	30.075 
06:10	42.8	42.8	42.8	94	41.2	0	3	112	0.00	30.075 
06:15	42.9	42.9	42.9	94	41.3	0	1	112	0.00	30.076 
06:20	42.9	42.9	42.9	94	41.3	0	1	112	0.00	30.076 
06:25	42.9	42.9	42.9	94	41.3	0	1	112	0.00	30.076 
06:30	43.1	43.1	43.1	94	41.5	0	3	112	0.01	30.073 
06:35	43.1	43.1	43.1	95	41.8	0	1	112	0.00	30.073 
06:40	43.1	43.1	43.1	94	41.5	0	2	112	0.00	30.073 
06:45	43.1	43.1	43.1	95	41.8	0	3	112	0.00	30.068 
06:50	43.1	43.1	43.1	95	41.8	0	2	112	0.00	30.068 
06:55	43.1	43.1	43.1	95	41.8	0	2	112	0.00	30.068 
07:00	43.1	43.1	43.1	95	41.8	0	2	112	0.00	30.074 
07:05	43.1	43.1	43.1	95	41.8	1	2	112	0.00	30.074 
07:10	43.2	43.2	43.2	95	41.9	1	3	112	0.00	30.074 
07:15	43.2	43.2	43.2	95	41.9	0	2	112	0.00	30.077 
07:20	43.2	43.2	43.2	95	41.9	0	3	112	0.00	30.077 
07:25	43.2	43.2	43.2	95	41.9	1	3	112	0.00	30.077 
07:30	43.2	43.2	43.2	95	41.9	0	1	112	0.00	30.085 
07:35	43.2	43.2	43.2	95	41.9	0	1	112	0.00	30.085 
07:40	43.2	43.2	43.2	95	41.9	0	2	112	0.00	30.085 
07:45	43.2	43.2	43.2	95	41.9	0	2	112	0.00	30.088 
07:50	43.2	43.2	43.2	95	41.9	0	1	112	0.00	30.088 
07:55	43.2	43.2	43.2	95	41.9	0	1	112	0.00	30.088 
08:00	43.2	43.2	43.2	95	41.9	0	2	112	0.00	30.090 
08:05	43.2	43.2	43.2	95	41.9	0	2	112	0.00	30.090 
08:10	43.3	43.3	43.3	95	42.0	0	2	112	0.00	30.090 
08:15	43.3	43.3	43.3	95	42.0	0	2	112	0.00	30.089 
08:20	43.3	43.3	43.3	95	42.0	0	2	112	0.00	30.089 
08:25	43.5	43.5	43.5	95	42.2	0	1	112	0.00	30.089 
08:30	43.5	43.5	43.5	95	42.2	0	2	112	0.00	30.084 
08:35	43.5	43.5	43.5	95	42.2	0	2	112	0.00	30.084 
08:40	43.5	43.5	43.5	94	41.9	1	3	338	0.00	30.084 
08:45	43.6	43.6	43.6	94	42.0	0	1	338	0.00	30.087 
08:50	43.6	43.6	43.6	94	42.0	1	2	338	0.00	30.087 
08:55	43.6	43.6	43.6	94	42.0	0	1	338	0.00	30.087 
09:00	43.6	43.6	43.6	94	42.0	0	1	338	0.00	30.090 
09:05	43.6	43.6	43.6	94	42.0	1	2	338	0.00	30.090 
09:10	43.6	43.6	43.6	94	42.0	0	2	338	0.00	30.090 
09:15	43.8	43.8	43.8	94	42.2	0	0	---	0.00	30.090 
09:20	43.9	43.9	43.9	94	42.3	0	0	---	0.00	30.090 
09:25	44.1	44.1	44.1	94	42.5	0	1	338	0.00	30.090 
09:30	44.2	44.2	44.2	94	42.6	0	1	338	0.00	30.093 
09:35	44.3	44.3	44.3	94	42.7	0	1	338	0.00	30.093 
09:40	44.5	44.5	44.5	94	42.9	0	1	338	0.00	30.093 
09:45	44.6	44.6	44.6	94	43.0	0	1	338	0.00	30.092 
09:50	44.6	44.6	44.6	94	43.0	0	2	338	0.00	30.092 
09:55	44.6	44.6	44.6	94	43.0	0	1	338	0.00	30.092 
10:00	44.8	44.8	44.8	93	42.9	1	2	338	0.00	30.093 
10:05	44.6	44.6	44.6	93	42.7	1	3	338	0.00	30.093 
10:10	44.8	44.8	44.8	93	42.9	1	4	292	0.00	30.093 
10:15	44.9	44.9	44.9	93	43.0	1	3	292	0.00	30.092 
10:20	45.2	45.2	45.2	92	43.0	0	2	292	0.00	30.092 
10:25	45.4	45.4	45.4	92	43.2	1	3	292	0.00	30.092 
10:30	45.8	45.8	45.8	92	43.6	0	2	292	0.00	30.089 
10:35	46.1	46.1	46.1	91	43.6	1	3	292	0.00	30.089 
10:40	46.1	46.1	46.1	90	43.3	1	3	292	0.00	30.089 
10:45	46.2	46.2	46.2	89	43.1	0	2	292	0.00	30.091 
10:50	46.4	46.4	46.4	88	43.0	1	2	292	0.00	30.091 
10:55	46.4	46.4	46.4	87	42.7	1	3	292	0.00	30.091 
11:00	46.5	46.5	46.5	87	42.8	1	3	292	0.00	30.089 
11:05	46.7	46.7	46.7	86	42.7	1	3	292	0.00	30.089 
11:10	46.8	46.8	46.8	85	42.5	0	3	292	0.00	30.089 
11:15	47.0	47.0	47.0	84	42.4	1	5	292	0.00	30.086 
11:20	47.1	47.1	47.1	84	42.5	0	3	315	0.00	30.086 
11:25	47.4	47.4	47.4	83	42.5	0	1	315	0.00	30.086 
11:30	47.6	47.6	47.6	83	42.7	1	4	292	0.00	30.074 
11:35	47.7	47.7	47.7	82	42.5	1	3	338	0.00	30.074 
11:40	47.7	47.7	47.7	81	42.2	0	2	338	0.00	30.074 
11:45	47.6	47.6	47.6	81	42.1	1	3	338	0.00	30.075 
11:50	47.9	47.9	47.9	80	42.0	1	3	338	0.00	30.075 
11:55	48.0	48.0	48.0	79	41.8	1	3	338	0.00	30.075 
12:00	48.3	48.3	48.3	79	42.1	1	2	338	0.00	30.064 
12:05	48.5	48.5	48.5	77	41.6	1	3	338	0.00	30.064 
12:10	48.6	48.6	48.6	77	41.7	1	3	338	0.00	30.064 
12:15	48.9	48.9	48.9	75	41.3	1	3	338	0.00	30.058 
12:20	49.2	49.2	49.2	75	41.6	1	3	338	0.00	30.058 
12:25	49.6	49.6	49.6	73	41.3	1	3	292	0.00	30.058 
12:30	49.9	49.9	49.9	73	41.6	0	1	315	0.00	30.044 
12:35	50.1	50.1	50.1	72	41.4	1	3	315	0.00	30.044 
12:40	50.2	50.2	50.2	71	41.2	1	6	292	0.00	30.044 
12:45	50.4	50.4	50.4	70	41.0	1	4	292	0.00	30.038 
12:50	50.4	50.4	50.4	69	40.6	0	2	292	0.00	30.038 
12:55	50.5	50.5	50.5	70	41.1	0	2	292	0.00	30.038 
13:00	50.4	50.4	50.4	69	40.6	1	3	292	0.00	30.035 
13:05	50.4	50.4	50.4	70	41.0	0	3	292	0.00	30.035 
13:10	50.2	50.2	50.2	70	40.8	2	4	292	0.00	30.035 
13:15	50.2	50.2	50.2	69	40.4	1	3	292	0.00	30.030 
13:20	50.4	50.4	50.4	69	40.6	1	2	292	0.00	30.030 
13:25	50.7	50.7	50.7	68	40.5	0	2	292	0.00	30.030 
13:30	50.8	50.8	50.8	69	41.0	1	4	292	0.00	30.027 
13:35	51.0	51.0	51.0	69	41.2	1	3	292	0.00	30.027 
13:40	51.0	51.0	51.0	68	40.8	1	4	292	0.00	30.027 
13:45	51.0	51.0	51.0	69	41.2	2	5	292	0.00	30.027 
13:50	51.0	51.0	51.0	69	41.2	1	3	292	0.00	30.027 
13:55	51.1	51.1	51.1	69	41.3	1	3	292	0.00	30.027 
14:00	51.1	51.1	51.1	67	40.5	1	4	292	0.00	30.025 
14:05	51.3	51.3	51.3	67	40.7	2	4	292	0.00	30.025 
14:10	51.6	51.6	51.6	65	40.2	2	3	292	0.00	30.025 
14:15	51.9	51.9	51.9	65	40.5	1	3	292	0.00	30.021 
14:20	51.9	51.9	51.9	62	39.3	1	4	292	0.00	30.021 
14:25	51.7	51.7	51.7	63	39.5	1	5	315	0.00	30.021 
14:30	51.4	51.4	51.4	63	39.2	1	4	270	0.00	30.021 
14:35	51.3	51.3	51.3	64	39.5	1	3	270	0.00	30.021 
14:40	51.4	51.4	51.4	64	39.6	0	3	270	0.00	30.021 
14:45	51.6	51.6	51.6	63	39.4	1	4	270	0.00	30.019 
14:50	51.7	51.7	51.7	62	39.1	2	4	292	0.00	30.019 
14:55	51.7	51.7	51.7	62	39.1	1	3	292	0.00	30.019 
15:00	51.9	51.9	51.9	62	39.3	1	3	292	0.00	30.021 
15:05	52.0	52.0	52.0	62	39.4	1	4	315	0.00	30.021 
15:10	52.2	52.2	52.2	62	39.6	1	2	292	0.00	30.021 
15:15	52.3	52.3	52.3	61	39.3	1	3	292	0.00	30.016 
15:20	52.2	52.2	52.2	61	39.2	1	3	292	0.00	30.016 
15:25	52.3	52.3	52.3	61	39.3	1	3	292	0.00	30.016 
15:30	52.3	52.3	52.3	61	39.3	2	4	292	0.00	30.017 
15:35	52.3	52.3	52.3	60	38.8	2	4	292	0.00	30.017 
15:40	52.3	52.3	52.3	60	38.8	1	4	292	0.00	30.017 
15:45	52.3	52.3	52.3	60	38.8	1	3	292	0.00	30.013 
15:50	52.5	52.5	52.5	60	39.0	0	2	292	0.00	30.013 
15:55	52.3	52.3	52.3	60	38.8	1	3	292	0.00	30.013 
16:00	52.3	52.3	52.3	60	38.8	0	3	292	0.00	30.011 
16:05	52.3	52.3	52.3	60	38.8	0	2	292	0.00	30.011 
16:10	52.3	52.3	52.3	60	38.8	0	2	292	0.00	30.011 
16:15	52.5	52.5	52.5	60	39.0	0	2	292	0.00	30.008 
16:20	52.6	52.6	52.6	60	39.1	0	1	292	0.00	30.008 
16:25	52.8	52.8	52.8	59	38.9	0	1	292	0.00	30.008 
16:30	53.1	53.1	53.1	58	38.7	0	2	292	0.00	30.005 
16:35	53.1	53.1	53.1	58	38.7	0	2	292	0.00	30.005 
16:40	53.1	53.1	53.1	58	38.7	0	2	292	0.00	30.005 
16:45	52.9	52.9	52.9	58	38.5	1	3	292	0.00	30.002 
16:50	52.6	52.6	52.6	58	38.2	0	1	292	0.00	30.002 
16:55	52.5	52.5	52.5	59	38.6	0	1	292	0.00	30.002 
17:00	52.3	52.3	52.3	60	38.8	0	1	292	0.00	30.000 
17:05	52.2	52.2	52.2	61	39.2	0	1	292	0.00	30.000 
17:10	51.9	51.9	51.9	61	38.9	0	1	292	0.00	30.000 
17:15	51.7	51.7	51.7	61	38.7	0	1	292	0.00	30.006 
17:20	51.4	51.4	51.4	62	38.8	0	0	---	0.00	30.006 
17:25	51.1	51.1	51.1	63	38.9	0	0	---	0.00	30.006 
17:30	50.7	50.7	50.7	63	38.6	0	0	---	0.00	30.010 
17:35	50.4	50.4	50.4	64	38.7	0	0	---	0.00	30.010 
17:40	49.9	49.9	49.9	65	38.6	0	0	---	0.00	30.010 
17:45	49.5	49.5	49.5	66	38.6	0	0	---	0.00	30.013 
17:50	49.1	49.1	49.1	67	38.6	0	0	---	0.00	30.013 
17:55	48.6	48.6	48.6	68	38.5	0	0	---	0.00	30.013 
18:00	48.2	48.2	48.2	69	38.5	0	0	---	0.00	30.013 
18:05	47.7	47.7	47.7	70	38.4	0	0	---	0.00	30.013 
18:10	47.3	47.3	47.3	71	38.4	0	0	---	0.00	30.013 
18:15	46.8	46.8	46.8	72	38.3	0	0	---	0.00	30.013 
18:20	46.5	46.5	46.5	73	38.3	0	0	---	0.00	30.013 
18:25	46.2	46.2	46.2	74	38.4	0	0	---	0.00	30.013 
18:30	45.8	45.8	45.8	75	38.3	0	0	---	0.00	30.016 
18:35	45.4	45.4	45.4	76	38.3	0	0	---	0.00	30.016 
18:40	45.1	45.1	45.1	76	38.0	0	0	---	0.00	30.016 
18:45	44.6	44.6	44.6	77	37.8	0	0	---	0.00	30.017 
18:50	44.3	44.3	44.3	77	37.6	0	0	---	0.00	30.017 
18:55	44.1	44.1	44.1	78	37.7	0	0	---	0.00	30.017 
19:00	43.8	43.8	43.8	79	37.7	0	0	---	0.00	30.030 
19:05	43.6	43.6	43.6	80	37.8	0	0	---	0.00	30.030 
19:10	43.3	43.3	43.3	81	37.9	0	0	---	0.00	30.030 
19:15	43.1	43.1	43.1	82	38.0	0	0	---	0.00	30.032 
19:20	42.9	42.9	42.9	83	38.1	0	0	---	0.00	30.032 
19:25	42.6	42.6	42.6	83	37.8	0	0	---	0.00	30.032 
19:30	42.5	42.5	42.5	83	37.7	0	0	---	0.00	30.033 
19:35	42.2	42.2	42.2	84	37.7	0	0	---	0.00	30.033 
19:40	42.1	42.1	42.1	84	37.6	0	0	---	0.00	30.033 
19:45	41.9	41.9	41.9	84	37.4	0	0	---	0.00	30.033 
19:50	41.6	41.6	41.6	85	37.4	0	0	---	0.00	30.033 
19:55	41.5	41.5	41.5	85	37.3	0	0	---	0.00	30.033 
20:00	41.3	41.3	41.3	86	37.4	0	0	---	0.00	30.032 
20:05	41.2	41.2	41.2	86	37.3	0	0	---	0.00	30.032 
20:10	40.9	40.9	40.9	86	37.0	0	0	---	0.00	30.032 
20:15	40.8	40.8	40.8	86	36.9	0	0	---	0.00	30.021 
20:20	40.5	40.5	40.5	87	36.9	0	0	---	0.00	30.021 
20:25	40.3	40.3	40.3	87	36.7	0	0	---	0.00	30.021 
20:30	40.1	40.1	40.1	87	36.5	0	0	---	0.00	30.020 
20:35	39.9	39.9	39.9	87	36.4	0	0	---	0.00	30.020 
20:40	39.9	39.9	39.9	88	36.6	0	0	---	0.00	30.020 
20:45	39.8	39.8	39.8	88	36.5	0	0	---	0.00	30.020 
20:50	39.6	39.6	39.6	88	36.3	0	0	---	0.00	30.020 
20:55	39.6	39.6	39.6	88	36.3	0	0	---	0.00	30.020 
21:00	39.6	39.6	39.6	89	36.6	0	0	---	0.00	30.020 
21:05	39.5	39.5	39.5	89	36.5	0	0	---	0.00	30.020 
21:10	39.5	39.5	39.5	89	36.5	0	0	---	0.00	30.020 
21:15	39.3	39.3	39.3	89	36.3	0	0	---	0.00	30.020 
21:20	39.2	39.2	39.2	89	36.2	0	0	---	0.00	30.020 
21:25	39.1	39.1	39.1	89	36.1	0	0	---	0.00	30.020 
21:30	38.9	38.9	38.9	90	36.2	0	0	---	0.00	30.019 
21:35	38.8	38.8	38.8	90	36.1	0	0	---	0.00	30.019 
21:40	38.6	38.6	38.6	90	35.9	0	0	---	0.00	30.019 
21:45	38.3	38.3	38.3	90	35.6	0	0	---	0.00	30.020 
21:50	38.3	38.3	38.3	90	35.6	0	0	---	0.00	30.020 
21:55	38.2	38.2	38.2	90	35.5	0	0	---	0.00	30.020 
22:00	38.0	38.0	38.0	90	35.3	0	0	---	0.00	30.021 
22:05	37.9	37.9	37.9	91	35.5	0	0	---	0.00	30.021 
22:10	37.9	37.9	37.9	91	35.5	0	0	---	0.00	30.021 
22:15	37.8	37.8	37.8	91	35.4	0	0	---	0.00	30.018 
22:20	37.8	37.8	37.8	91	35.4	0	0	---	0.00	30.018 
22:25	37.6	37.6	37.6	91	35.2	0	0	---	0.00	30.018 
22:30	37.5	37.5	37.5	91	35.1	0	0	---	0.00	30.016 
22:35	37.3	37.3	37.3	91	34.9	0	0	---	0.00	30.016 
22:40	37.2	37.2	37.2	91	34.8	0	0	---	0.00	30.016 
22:45	37.0	37.0	37.0	91	34.6	0	0	---	0.00	30.013 
22:50	36.8	36.8	36.8	91	34.4	0	0	---	0.00	30.013 
22:55	36.6	36.6	36.6	91	34.2	0	0	---	0.00	30.013 
23:00	36.6	36.6	36.6	91	34.2	0	0	---	0.00	30.016 
23:05	36.5	36.5	36.5	91	34.1	0	0	---	0.00	30.016 
23:10	36.5	36.5	36.5	91	34.1	0	0	---	0.00	30.016 
23:15	36.3	36.3	36.3	91	33.9	0	0	---	0.00	30.013 
23:20	36.3	36.3	36.3	92	34.2	0	0	---	0.00	30.013 
23:25	36.2	36.2	36.2	92	34.1	0	0	---	0.00	30.013 
23:30	36.2	36.2	36.2	92	34.1	0	0	---	0.00	30.008 
23:35	36.2	36.2	36.2	92	34.1	0	0	---	0.00	30.008 
23:40	36.2	36.2	36.2	92	34.1	0	0	---	0.00	30.008 
23:45	36.2	36.2	36.2	92	34.1	0	0	---	0.00	30.006 
23:50	36.2	36.2	36.2	92	34.1	0	0	---	0.00	30.006 
23:55	36.3	36.3	36.3	92	34.2	0	0	---	0.00	30.006 

CoCoRaHS
IN-AL-39
A2 Web Hosting
Creative Commons License
GoDaddy
search engine by freefind advanced

loaded 2018-11-17 14:32:50 • last modified 2010-11-18 10:43:29
Privacy PolicyDisclaimer
• wx.awcolley.com is powered by PmWiki v.2002016 •
• all content (unless otherwise noted) © 2018 A W Colley